createdAt,value
2022-08-31T00:02:12.500Z,14.50
2022-08-31T00:04:42.439Z,18.33
2022-08-31T00:07:11.140Z,16.00
2022-08-31T00:09:39.930Z,22.67
2022-08-31T00:12:08.722Z,17.00
2022-08-31T00:14:38.432Z,15.00
2022-08-31T00:17:06.913Z,16.25
2022-08-31T00:19:35.294Z,13.00
2022-08-31T00:22:03.881Z,20.50
2022-08-31T00:24:32.875Z,23.75
2022-08-31T00:27:01.252Z,21.50
2022-08-31T00:29:29.835Z,15.67
2022-08-31T00:31:58.457Z,20.75
2022-08-31T00:34:28.333Z,17.67
2022-08-31T00:36:56.918Z,17.50
2022-08-31T00:39:25.322Z,19.50
2022-08-31T00:41:53.679Z,22.00
2022-08-31T00:44:23.182Z,17.33
2022-08-31T00:46:51.763Z,18.67
2022-08-31T00:49:27.738Z,17.33
2022-08-31T00:52:00.632Z,20.33
2022-08-31T00:54:35.666Z,15.50
2022-08-31T00:57:05.011Z,16.25
2022-08-31T00:59:33.635Z,18.00
2022-08-31T01:02:02.342Z,20.00
2022-08-31T01:04:31.210Z,20.00
2022-08-31T01:07:00.265Z,19.67
2022-08-31T01:09:31.652Z,17.67
2022-08-31T01:12:00.236Z,17.00
2022-08-31T01:14:28.718Z,22.00
2022-08-31T01:16:57.303Z,16.00
2022-08-31T01:19:39.065Z,19.67
2022-08-31T01:22:29.634Z,18.00
2022-08-31T01:24:58.692Z,19.00
2022-08-31T01:27:29.937Z,20.33
2022-08-31T01:30:03.493Z,19.00
2022-08-31T01:32:32.229Z,21.33
2022-08-31T01:35:00.505Z,19.75
2022-08-31T01:37:30.292Z,19.33
2022-08-31T01:39:58.864Z,18.00
2022-08-31T01:42:33.309Z,21.75
2022-08-31T01:45:07.132Z,18.50
2022-08-31T01:47:35.410Z,19.25
2022-08-31T01:50:04.342Z,19.50
2022-08-31T01:52:34.533Z,21.00
2022-08-31T01:55:04.169Z,20.00
2022-08-31T01:57:34.019Z,21.00
2022-08-31T02:00:08.982Z,21.00
2022-08-31T02:02:37.744Z,21.00
2022-08-31T02:05:07.004Z,20.50
2022-08-31T02:07:36.370Z,17.75
2022-08-31T02:10:06.283Z,20.50
2022-08-31T02:12:34.998Z,23.00
2022-08-31T02:15:03.661Z,25.33
2022-08-31T02:17:32.343Z,21.00
2022-08-31T02:20:00.956Z,26.00
2022-08-31T02:22:29.411Z,27.00
2022-08-31T02:24:57.891Z,27.33
2022-08-31T02:27:27.018Z,26.67
2022-08-31T02:29:55.571Z,23.67
2022-08-31T02:32:24.671Z,32.00
2022-08-31T02:34:53.078Z,27.00
2022-08-31T02:37:21.528Z,29.67
2022-08-31T02:39:51.136Z,32.33
2022-08-31T02:42:19.651Z,30.33
2022-08-31T02:44:48.100Z,25.67
2022-08-31T02:47:16.789Z,32.67
2022-08-31T02:49:45.203Z,30.00
2022-08-31T02:52:13.717Z,36.67
2022-08-31T02:54:42.338Z,40.50
2022-08-31T02:57:10.814Z,33.33
2022-08-31T02:59:39.103Z,30.00
2022-08-31T03:02:07.635Z,33.00
2022-08-31T03:04:36.105Z,35.67
2022-08-31T03:07:04.437Z,52.00
2022-08-31T03:09:33.241Z,36.50
2022-08-31T03:12:01.937Z,35.00
2022-08-31T03:14:30.395Z,32.50
2022-08-31T03:16:58.912Z,27.50
2022-08-31T03:19:27.254Z,30.33
2022-08-31T03:21:56.386Z,27.00
2022-08-31T03:24:27.375Z,30.33
2022-08-31T03:26:56.217Z,26.50
2022-08-31T03:29:24.870Z,29.50
2022-08-31T03:31:53.357Z,32.00
2022-08-31T03:34:21.775Z,30.00
2022-08-31T03:36:50.110Z,30.00
2022-08-31T03:39:18.808Z,33.33
2022-08-31T03:41:47.224Z,32.33
2022-08-31T03:44:15.656Z,35.33
2022-08-31T03:46:45.650Z,29.33
2022-08-31T03:49:15.012Z,35.00
2022-08-31T03:51:43.667Z,30.00
2022-08-31T03:54:12.968Z,32.67
2022-08-31T03:56:41.660Z,29.00
2022-08-31T03:59:10.437Z,26.67
2022-08-31T04:01:39.847Z,28.67
2022-08-31T04:04:08.328Z,26.50
2022-08-31T04:06:36.707Z,29.00
2022-08-31T04:09:05.330Z,37.67
2022-08-31T04:11:44.456Z,30.67
2022-08-31T04:14:15.423Z,32.50
2022-08-31T04:16:44.154Z,21.67
2022-08-31T04:19:16.525Z,33.50
2022-08-31T04:21:45.002Z,38.33
2022-08-31T04:24:14.204Z,33.00
2022-08-31T04:26:42.812Z,30.50
2022-08-31T04:29:13.682Z,28.00
2022-08-31T04:31:43.127Z,27.00
2022-08-31T04:34:11.513Z,34.67
2022-08-31T04:36:40.236Z,25.00
2022-08-31T04:39:09.598Z,33.00
2022-08-31T04:41:40.434Z,32.67
2022-08-31T04:44:09.119Z,41.67
2022-08-31T04:46:39.085Z,38.50
2022-08-31T04:49:09.747Z,33.67
2022-08-31T04:51:39.685Z,34.33
2022-08-31T04:54:10.721Z,33.00
2022-08-31T04:56:41.881Z,36.00
2022-08-31T04:59:15.817Z,36.00
2022-08-31T05:01:48.697Z,35.00
2022-08-31T05:04:17.354Z,41.00
2022-08-31T05:06:47.268Z,30.67
2022-08-31T05:09:20.127Z,42.00
2022-08-31T05:11:50.663Z,33.00
